Nearby METAR Reports

 

KAWO - Arlington Muni, Washington, USA
Distance from station: WSW 26mi, 42km
Updated: Thu, 30-Oct-2014 5:35am PDT
Mostly cloudy
Mostly cloudy
 Wind from N
Wind: N 7 mph , 11 km/h
Temperature: 52°F , 11°C
Dew Point: 43°F , 6°C
Humidity: 72%
Barometer: 29.92 inHg , 1013.2 hPa
Clouds: Mostly cloudy
Visibility: 10 miles , 16 km
Cloud details: Mostly cloudy 9000 ft
2014/10/30 12:35 KAWO 301235Z AUTO 01006KT 10SM BKN090 11/06 A2992 RMK AO1
KPAE - Everett, Washington, USA
Distance from station: SW 39mi, 62km
Updated: Thu, 30-Oct-2014 4:53am PDT
Mostly cloudy
Mostly cloudy
 Wind from ESE
Wind: ESE 12 mph , 19 km/h
Temperature: 57°F , 14°C
Dew Point: 43°F , 6°C
Humidity: 59%
Barometer: 29.93 inHg , 1013.5 hPa
Clouds: Mostly cloudy
Visibility: 10 miles , 16 km
Cloud details: Mostly cloudy 8500 ft
Mostly cloudy 11000 ft
2014/10/30 11:53 KPAE 301153Z AUTO 11010KT 10SM BKN085 BKN110 14/06 A2993 RMK AO2 SLP134 T01390061 10139 20117 58024
 
KBVS - Burlington/Mt V, Washington, USA
Distance from station: WNW 40mi, 64km
Updated: Thu, 30-Oct-2014 5:35am PDT
Partly cloudy
Partly cloudy
 Wind from ENE
Wind: ENE 10 mph , 17 km/h
Barometer: 29.91 inHg , 1012.9 hPa
Clouds: Partly cloudy
Visibility: 10 miles , 16 km
Cloud details: Partly cloudy 10000 ft
2014/10/30 12:35 KBVS 301235Z AUTO 07009KT 10SM SCT100 A2991 RMK A01 P000
KNUW - Whidbey Is. Nas, Washington, USA
Distance from station: W 48mi, 78km
Updated: Thu, 30-Oct-2014 4:56am PDT
Mostly cloudy
Mostly cloudy
 Wind from ESE
Wind: ESE 9 mph , 15 km/h
Temperature: 52°F , 11°C
Dew Point: 46°F , 8°C
Humidity: 82%
Barometer: 29.92 inHg , 1013.2 hPa
Clouds: Mostly cloudy
Visibility: 10 miles , 16 km
Cloud details: Partly cloudy 6000 ft
Mostly cloudy 10000 ft
Mostly cloudy 12000 ft
2014/10/30 11:56 KNUW 301156Z 12008KT 10SM SCT060 BKN100 BKN120 11/08 A2992 RMK AO2 SLP136 70001 T01110083 10128 20106 58023 $
 
KBLI - Bellingham, Washington, USA
Distance from station: NW 57mi, 91km
Updated: Thu, 30-Oct-2014 4:53am PDT
Overcast
Overcast
 Wind from NNE
Wind: NNE 9 mph , 15 km/h
Temperature: 54°F , 12°C
Dew Point: 45°F , 7°C
Humidity: 72%
Barometer: 29.92 inHg , 1013.2 hPa
Clouds: Overcast
Visibility: 10 miles , 16 km
Cloud details: Few Clouds 5500 ft
Mostly cloudy 9000 ft
Overcast 11000 ft
2014/10/30 11:53 KBLI 301153Z AUTO 02008KT 10SM FEW055 BKN090 OVC110 12/07 A2992 RMK AO2 RAB39E52 SLP140 P0000 60000 70006 T01170067 10117 20094 58022
KBFI - Seattle/Boeing, Washington, USA
Distance from station: SW 58mi, 94km
Updated: Thu, 30-Oct-2014 4:53am PDT
Few Clouds
Few Clouds
 Wind from calm
Wind: Calm
Temperature: 55°F , 13°C
Dew Point: 50°F , 10°C
Humidity: 82%
Barometer: 29.92 inHg , 1013.2 hPa
Clouds: Few Clouds
Visibility: 10 miles , 16 km
Cloud details: Few Clouds 6000 ft
2014/10/30 11:53 KBFI 301153Z 00000KT 10SM FEW060 13/10 A2992 RMK AO2 RAB24E33 SLP133 P0000 60000 70002 T01280100 10133 20122 58022